Aeroporto :
LOGIN :

Iscrizione | Disclaimer

   EN    FR    IT 

 










Sommario :    VFR   VFR Marginale   IFR   IFR Intensivo   IFR Molto Intensivo
Visibilità : 
Base nubi : 
>= 8 km
>= 3000ft
5 / 8 km
1000 / 3000 ft
1500m / 5 km
500 / 1000 ft
800 / 1500m
200 / 500 ft
< 800m
< 200 ft
Simboli :   Temporali  Nebbia  Neve Forte  Precipitazioni Forti  Vento > 20 kt
SIGMETs :   Varie  Temporali  Ghiacco  Turbolenza  Onda orograficha  Ceneri Vulcaniche







- Altitudine del aeroporto : 302 ft
- Codice IATA : CGN


EDDK - Cologne Bonn

ULTIMO METAR :
  • 241750Z 32005KT 9999 FEW044 10/05 Q1034 NOSIG

METARs OBSOLETI :
  • 241720Z 31006KT 270V330 9999 FEW044 11/05 Q1034 NOSIG
  • 241650Z 31010KT 9999 FEW042 SCT070 12/05 Q1034 BECMG 30005KT
  • 241620Z 31012KT 9999 FEW020 FEW040CB SCT065 13/04 Q1034 BECMG 30005KT
  • 241550Z 31013KT 9999 FEW020 FEW040CB SCT060 13/05 Q1033 NOSIG
  • 241520Z 30011KT 270V330 9999 FEW020 FEW035CB SCT080 13/05 Q1034 NOSIG

TAF TAF EDDK
Valido dal 24 a 18 ore il 26 a 00 ore UTC


241700Z 2418/2524 31007KT 9999 FEW030
BECMG 2419/2421 VRB03KT
PROB30
TEMPO 2505/2507 4000 BR
Nessun NOTAM noto per questo aeroporto.



MetMap, La meteo Aeronautica in un colpo d'occhio ! - Copyright ORBIFLY Dicembre 2007 - Disclaimer

ORBIFLY MET'MAP TEAM :

Programmazione e sviluppo : Alexandra Zaïnal
Concezione e sviluppo : Baudouin d'Aumeries
Co-Programmazione e sviluppo : Marc-Olivier Méhu
Supporto tecnico e logistico : Manuel Goepfert
Aiuto per la traduzione : Arnaldo La Scala

Contatto : metmap@orbifly.com




FONTI E CREDITI :

   NOAA